Погода Бостандыкна 2 недели

Южно-Казахстанская область, Казахстан

18 - 31 июля
  • 18июля
    Сегодня
    +19°
    +32°
    Практически безоблачно
    ВремяПогодаТемператураВлажностьДавлениеВетер, м/сВероятность осадков
    02:00Ясно и безоблачно+21°C67 %708 мм1.4 м/с2 %
    05:00Ясно и безоблачно+20°C60 %709 мм1.2 м/с2 %
    08:00Ясно и безоблачно+25°C50 %710 мм0.8 м/с2 %
    11:00Практически безоблачно+29°C37 %710 мм1.8 м/с2 %
    14:00Практически безоблачно+31°C35 %710 мм2.7 м/с10 %
    17:00Практически безоблачно+30°C34 %710 мм2.1 м/с6 %
    20:00Практически безоблачно+27°C48 %709 мм1.2 м/с2 %
    23:00Ясно и безоблачно+22°C55 %708 мм1.5 м/с2 %
  • 19июля
    Пятница
    +19°
    +33°
    Практически безоблачно
    ВремяПогодаТемператураВлажностьДавлениеВетер, м/сВероятность осадков
    02:00Ясно и безоблачно+20°C63 %707 мм1.4 м/с2 %
    05:00Практически безоблачно+20°C52 %707 мм1.3 м/с2 %
    08:00Практически безоблачно+26°C47 %709 мм1.3 м/с9 %
    11:00Практически безоблачно+29°C45 %709 мм2.1 м/с21 %
    14:00Практически безоблачно+32°C36 %709 мм2.5 м/с19 %
    17:00Ясно и безоблачно+31°C33 %708 мм3.1 м/с16 %
    20:00Ясно и безоблачно+28°C47 %708 мм1.6 м/с3 %
    23:00Ясно и безоблачно+23°C60 %707 мм1.2 м/с2 %
  • 20июля
    Суббота
    +19°
    +33°
    Ясно и безоблачно
    ВремяПогодаТемператураВлажностьДавлениеВетер, м/сВероятность осадков
    02:00Ясно и безоблачно+20°C65 %707 мм1.1 м/с2 %
    05:00Практически безоблачно+20°C60 %707 мм1.3 м/с3 %
    08:00Практически безоблачно+26°C52 %709 мм0.6 м/с5 %
    11:00Практически безоблачно+31°C39 %710 мм1.2 м/с6 %
    14:00Ясно и безоблачно+33°C34 %710 мм2.4 м/с5 %
    17:00Ясно и безоблачно+32°C33 %709 мм2.2 м/с2 %
    20:00Ясно и безоблачно+28°C46 %709 мм1.1 м/с2 %
    23:00Ясно и безоблачно+22°C58 %708 мм1.3 м/с2 %
  • 21июля
    Воскресенье
    +20°
    +35°
    Ясно и безоблачно
    ВремяПогодаТемператураВлажностьДавлениеВетер, м/сВероятность осадков
    02:00Ясно и безоблачно+21°C61 %708 мм1.3 м/с2 %
    05:00Ясно и безоблачно+20°C57 %708 мм1.4 м/с2 %
    08:00Ясно и безоблачно+26°C48 %710 мм1.1 м/с2 %
    11:00Ясно и безоблачно+31°C23 %710 мм1.8 м/с2 %
    14:00Ясно и безоблачно+34°C18 %710 мм1.7 м/с2 %
    17:00Ясно и безоблачно+34°C20 %709 мм2.0 м/с2 %
    20:00Ясно и безоблачно+29°C34 %709 мм1.8 м/с2 %
    23:00Облачно с прояснениями+24°C39 %708 мм1.2 м/с2 %
  • 22июля
    Понедельник
    +20°
    +36°
    Ясно и безоблачно
    ВремяПогодаТемператураВлажностьДавлениеВетер, м/сВероятность осадков
    02:00Ясно и безоблачно+22°C43 %707 мм1.5 м/с2 %
    05:00Ясно и безоблачно+21°C45 %707 мм1.2 м/с2 %
    08:00Ясно и безоблачно+28°C44 %708 мм0.8 м/с2 %
    11:00Ясно и безоблачно+33°C23 %709 мм1.2 м/с2 %
    14:00Ясно и безоблачно+36°C19 %708 мм2.1 м/с2 %
    17:00Ясно и безоблачно+35°C19 %708 мм2.3 м/с2 %
    20:00Ясно и безоблачно+32°C22 %708 мм1.2 м/с2 %
    23:00Практически безоблачно+25°C36 %708 мм0.5 м/с2 %
Мы используем cookies
Соглашаюсь